sensor_id;sensor_type;location;lat;lon;timestamp;P1;durP1;ratioP1;P2;durP2;ratioP2
7729;SDS011;3908;52.310;7.230;2024-03-22T00:00:30;56.70;;;51.13;;
7729;SDS011;3908;52.310;7.230;2024-03-22T00:03:17;55.93;;;50.27;;
7729;SDS011;3908;52.310;7.230;2024-03-22T00:06:04;55.80;;;49.97;;
7729;SDS011;3908;52.310;7.230;2024-03-22T00:08:51;59.57;;;53.17;;
7729;SDS011;3908;52.310;7.230;2024-03-22T00:11:38;57.97;;;51.93;;
7729;SDS011;3908;52.310;7.230;2024-03-22T00:14:28;56.87;;;50.73;;
7729;SDS011;3908;52.310;7.230;2024-03-22T00:17:15;58.93;;;52.87;;
7729;SDS011;3908;52.310;7.230;2024-03-22T00:20:02;57.83;;;51.60;;
7729;SDS011;3908;52.310;7.230;2024-03-22T00:22:48;61.60;;;55.30;;
7729;SDS011;3908;52.310;7.230;2024-03-22T00:25:35;55.67;;;50.07;;
7729;SDS011;3908;52.310;7.230;2024-03-22T00:28:21;60.20;;;53.47;;
7729;SDS011;3908;52.310;7.230;2024-03-22T00:31:10;59.53;;;52.87;;
7729;SDS011;3908;52.310;7.230;2024-03-22T00:33:56;58.80;;;52.33;;
7729;SDS011;3908;52.310;7.230;2024-03-22T00:36:43;63.07;;;56.03;;
7729;SDS011;3908;52.310;7.230;2024-03-22T00:39:30;54.40;;;48.53;;
7729;SDS011;3908;52.310;7.230;2024-03-22T00:42:17;55.97;;;50.13;;
7729;SDS011;3908;52.310;7.230;2024-03-22T00:45:04;57.60;;;49.67;;
7729;SDS011;3908;52.310;7.230;2024-03-22T00:47:52;57.63;;;51.37;;
7729;SDS011;3908;52.310;7.230;2024-03-22T00:50:38;56.93;;;50.80;;
7729;SDS011;3908;52.310;7.230;2024-03-22T00:53:26;58.70;;;52.90;;
7729;SDS011;3908;52.310;7.230;2024-03-22T00:56:12;58.77;;;49.17;;
7729;SDS011;3908;52.310;7.230;2024-03-22T00:58:59;55.40;;;49.03;;
7729;SDS011;3908;52.310;7.230;2024-03-22T01:01:45;56.60;;;48.73;;
7729;SDS011;3908;52.310;7.230;2024-03-22T01:04:33;55.90;;;50.13;;
7729;SDS011;3908;52.310;7.230;2024-03-22T01:07:19;59.70;;;49.53;;
7729;SDS011;3908;52.310;7.230;2024-03-22T01:10:07;59.63;;;49.57;;
7729;SDS011;3908;52.310;7.230;2024-03-22T01:12:53;59.67;;;53.20;;
7729;SDS011;3908;52.310;7.230;2024-03-22T01:15:40;58.83;;;52.43;;
7729;SDS011;3908;52.310;7.230;2024-03-22T01:18:26;56.20;;;50.20;;
7729;SDS011;3908;52.310;7.230;2024-03-22T01:21:14;60.90;;;52.23;;
7729;SDS011;3908;52.310;7.230;2024-03-22T01:24:00;61.80;;;55.47;;
7729;SDS011;3908;52.310;7.230;2024-03-22T01:26:47;70.70;;;63.37;;
7729;SDS011;3908;52.310;7.230;2024-03-22T01:29:33;67.70;;;60.83;;
7729;SDS011;3908;52.310;7.230;2024-03-22T01:32:21;75.60;;;68.47;;
7729;SDS011;3908;52.310;7.230;2024-03-22T01:35:08;73.57;;;66.27;;
7729;SDS011;3908;52.310;7.230;2024-03-22T01:37:56;75.40;;;68.30;;
7729;SDS011;3908;52.310;7.230;2024-03-22T01:40:42;77.10;;;69.47;;
7729;SDS011;3908;52.310;7.230;2024-03-22T01:43:29;81.87;;;73.93;;
7729;SDS011;3908;52.310;7.230;2024-03-22T01:46:15;78.47;;;70.63;;
7729;SDS011;3908;52.310;7.230;2024-03-22T01:49:02;71.77;;;64.47;;
7729;SDS011;3908;52.310;7.230;2024-03-22T01:51:48;77.60;;;70.23;;
7729;SDS011;3908;52.310;7.230;2024-03-22T01:54:37;75.43;;;67.90;;
7729;SDS011;3908;52.310;7.230;2024-03-22T01:57:23;76.83;;;69.60;;
7729;SDS011;3908;52.310;7.230;2024-03-22T02:00:10;77.73;;;69.33;;
7729;SDS011;3908;52.310;7.230;2024-03-22T02:02:57;76.93;;;69.70;;
7729;SDS011;3908;52.310;7.230;2024-03-22T02:05:44;83.90;;;75.60;;
7729;SDS011;3908;52.310;7.230;2024-03-22T02:08:30;79.27;;;71.80;;
7729;SDS011;3908;52.310;7.230;2024-03-22T02:11:18;80.37;;;72.07;;
7729;SDS011;3908;52.310;7.230;2024-03-22T02:14:05;80.20;;;72.10;;
7729;SDS011;3908;52.310;7.230;2024-03-22T02:16:52;80.70;;;72.70;;
7729;SDS011;3908;52.310;7.230;2024-03-22T02:19:38;83.60;;;73.50;;
7729;SDS011;3908;52.310;7.230;2024-03-22T02:22:25;84.20;;;76.07;;
7729;SDS011;3908;52.310;7.230;2024-03-22T02:25:13;85.00;;;76.33;;
7729;SDS011;3908;52.310;7.230;2024-03-22T02:28:00;88.37;;;79.30;;
7729;SDS011;3908;52.310;7.230;2024-03-22T02:30:46;89.40;;;80.73;;
7729;SDS011;3908;52.310;7.230;2024-03-22T02:33:33;95.27;;;85.77;;
7729;SDS011;3908;52.310;7.230;2024-03-22T02:36:19;85.67;;;77.10;;
7729;SDS011;3908;52.310;7.230;2024-03-22T02:39:06;89.03;;;79.67;;
7729;SDS011;3908;52.310;7.230;2024-03-22T02:41:53;83.50;;;74.83;;
7729;SDS011;3908;52.310;7.230;2024-03-22T02:44:40;79.23;;;71.10;;
7729;SDS011;3908;52.310;7.230;2024-03-22T02:47:28;76.60;;;68.60;;
7729;SDS011;3908;52.310;7.230;2024-03-22T02:50:15;74.17;;;66.37;;
7729;SDS011;3908;52.310;7.230;2024-03-22T02:53:01;74.57;;;63.33;;
7729;SDS011;3908;52.310;7.230;2024-03-22T02:55:48;67.73;;;55.40;;
7729;SDS011;3908;52.310;7.230;2024-03-22T02:58:36;65.57;;;53.93;;
7729;SDS011;3908;52.310;7.230;2024-03-22T03:01:23;70.47;;;52.90;;
7729;SDS011;3908;52.310;7.230;2024-03-22T03:04:09;72.90;;;54.10;;
7729;SDS011;3908;52.310;7.230;2024-03-22T03:06:56;70.13;;;49.90;;
7729;SDS011;3908;52.310;7.230;2024-03-22T03:09:42;63.17;;;46.67;;
7729;SDS011;3908;52.310;7.230;2024-03-22T03:12:29;67.23;;;45.83;;
7729;SDS011;3908;52.310;7.230;2024-03-22T03:15:17;64.17;;;42.80;;
7729;SDS011;3908;52.310;7.230;2024-03-22T03:18:04;63.30;;;42.13;;
7729;SDS011;3908;52.310;7.230;2024-03-22T03:20:50;58.67;;;39.37;;
7729;SDS011;3908;52.310;7.230;2024-03-22T03:23:37;57.03;;;40.60;;
7729;SDS011;3908;52.310;7.230;2024-03-22T03:26:23;62.67;;;40.13;;
7729;SDS011;3908;52.310;7.230;2024-03-22T03:29:10;69.20;;;41.17;;
7729;SDS011;3908;52.310;7.230;2024-03-22T03:31:58;61.87;;;37.30;;
7729;SDS011;3908;52.310;7.230;2024-03-22T03:34:44;58.50;;;36.87;;
7729;SDS011;3908;52.310;7.230;2024-03-22T03:37:31;66.43;;;39.03;;
7729;SDS011;3908;52.310;7.230;2024-03-22T03:40:17;57.97;;;37.63;;
7729;SDS011;3908;52.310;7.230;2024-03-22T03:43:04;58.47;;;39.33;;
7729;SDS011;3908;52.310;7.230;2024-03-22T03:45:50;57.67;;;37.57;;
7729;SDS011;3908;52.310;7.230;2024-03-22T03:48:41;61.20;;;37.83;;
7729;SDS011;3908;52.310;7.230;2024-03-22T03:51:27;68.70;;;38.00;;
7729;SDS011;3908;52.310;7.230;2024-03-22T03:54:14;56.93;;;37.50;;
7729;SDS011;3908;52.310;7.230;2024-03-22T03:57:00;55.90;;;36.90;;
7729;SDS011;3908;52.310;7.230;2024-03-22T03:59:47;60.17;;;36.80;;
7729;SDS011;3908;52.310;7.230;2024-03-22T04:02:33;66.53;;;37.47;;
7729;SDS011;3908;52.310;7.230;2024-03-22T04:05:21;59.87;;;34.63;;
7729;SDS011;3908;52.310;7.230;2024-03-22T04:08:07;56.83;;;35.13;;
7729;SDS011;3908;52.310;7.230;2024-03-22T04:10:54;58.93;;;34.43;;
7729;SDS011;3908;52.310;7.230;2024-03-22T04:13:42;53.53;;;35.20;;
7729;SDS011;3908;52.310;7.230;2024-03-22T04:16:29;53.73;;;35.07;;
7729;SDS011;3908;52.310;7.230;2024-03-22T04:19:15;57.70;;;36.03;;
7729;SDS011;3908;52.310;7.230;2024-03-22T04:22:03;58.23;;;35.67;;
7729;SDS011;3908;52.310;7.230;2024-03-22T04:24:50;51.23;;;35.67;;
7729;SDS011;3908;52.310;7.230;2024-03-22T04:27:37;57.63;;;37.97;;
7729;SDS011;3908;52.310;7.230;2024-03-22T04:30:23;63.33;;;37.43;;
7729;SDS011;3908;52.310;7.230;2024-03-22T04:33:10;54.27;;;36.43;;
7729;SDS011;3908;52.310;7.230;2024-03-22T04:35:56;59.10;;;37.90;;
7729;SDS011;3908;52.310;7.230;2024-03-22T04:38:45;58.60;;;37.60;;
7729;SDS011;3908;52.310;7.230;2024-03-22T04:41:32;51.53;;;35.60;;
7729;SDS011;3908;52.310;7.230;2024-03-22T04:44:19;52.70;;;34.07;;
7729;SDS011;3908;52.310;7.230;2024-03-22T04:47:05;54.57;;;34.60;;
7729;SDS011;3908;52.310;7.230;2024-03-22T04:49:52;64.07;;;37.10;;
7729;SDS011;3908;52.310;7.230;2024-03-22T04:52:38;66.97;;;36.27;;
7729;SDS011;3908;52.310;7.230;2024-03-22T04:55:27;50.47;;;33.43;;
7729;SDS011;3908;52.310;7.230;2024-03-22T04:58:14;60.77;;;39.23;;
7729;SDS011;3908;52.310;7.230;2024-03-22T05:01:01;66.77;;;37.87;;
7729;SDS011;3908;52.310;7.230;2024-03-22T05:03:48;58.07;;;36.03;;
7729;SDS011;3908;52.310;7.230;2024-03-22T05:06:34;56.20;;;35.20;;
7729;SDS011;3908;52.310;7.230;2024-03-22T05:09:21;60.67;;;35.73;;
7729;SDS011;3908;52.310;7.230;2024-03-22T05:12:08;61.10;;;37.83;;
7729;SDS011;3908;52.310;7.230;2024-03-22T05:14:55;62.63;;;38.67;;
7729;SDS011;3908;52.310;7.230;2024-03-22T05:17:41;67.23;;;36.93;;
7729;SDS011;3908;52.310;7.230;2024-03-22T05:20:28;63.40;;;34.80;;
7729;SDS011;3908;52.310;7.230;2024-03-22T05:23:14;61.57;;;35.03;;
7729;SDS011;3908;52.310;7.230;2024-03-22T05:26:03;63.33;;;34.80;;
7729;SDS011;3908;52.310;7.230;2024-03-22T05:28:52;55.97;;;33.97;;
7729;SDS011;3908;52.310;7.230;2024-03-22T05:31:45;57.67;;;36.67;;
7729;SDS011;3908;52.310;7.230;2024-03-22T05:34:32;63.27;;;37.57;;
7729;SDS011;3908;52.310;7.230;2024-03-22T05:37:19;59.83;;;36.23;;
7729;SDS011;3908;52.310;7.230;2024-03-22T05:40:06;63.83;;;35.33;;
7729;SDS011;3908;52.310;7.230;2024-03-22T05:42:54;57.63;;;33.83;;
7729;SDS011;3908;52.310;7.230;2024-03-22T05:45:43;63.00;;;33.77;;
7729;SDS011;3908;52.310;7.230;2024-03-22T05:48:29;56.00;;;33.10;;
7729;SDS011;3908;52.310;7.230;2024-03-22T05:51:16;63.23;;;34.80;;
7729;SDS011;3908;52.310;7.230;2024-03-22T05:54:03;61.37;;;33.33;;
7729;SDS011;3908;52.310;7.230;2024-03-22T05:56:50;56.53;;;33.90;;
7729;SDS011;3908;52.310;7.230;2024-03-22T05:59:36;64.50;;;33.00;;
7729;SDS011;3908;52.310;7.230;2024-03-22T06:02:25;57.67;;;33.40;;
7729;SDS011;3908;52.310;7.230;2024-03-22T06:05:12;56.63;;;32.23;;
7729;SDS011;3908;52.310;7.230;2024-03-22T06:07:58;55.97;;;32.60;;
7729;SDS011;3908;52.310;7.230;2024-03-22T06:10:45;56.80;;;32.13;;
7729;SDS011;3908;52.310;7.230;2024-03-22T06:13:31;59.47;;;33.90;;
7729;SDS011;3908;52.310;7.230;2024-03-22T06:16:18;61.40;;;34.73;;
7729;SDS011;3908;52.310;7.230;2024-03-22T06:19:06;60.83;;;33.87;;
7729;SDS011;3908;52.310;7.230;2024-03-22T06:21:53;56.33;;;34.63;;
7729;SDS011;3908;52.310;7.230;2024-03-22T06:24:39;62.20;;;38.10;;
7729;SDS011;3908;52.310;7.230;2024-03-22T06:27:26;55.07;;;31.77;;
7729;SDS011;3908;52.310;7.230;2024-03-22T06:30:13;64.53;;;37.67;;
7729;SDS011;3908;52.310;7.230;2024-03-22T06:33:00;61.03;;;37.37;;
7729;SDS011;3908;52.310;7.230;2024-03-22T06:35:48;62.30;;;40.83;;
7729;SDS011;3908;52.310;7.230;2024-03-22T06:38:35;60.73;;;40.10;;
7729;SDS011;3908;52.310;7.230;2024-03-22T06:41:21;64.30;;;41.77;;
7729;SDS011;3908;52.310;7.230;2024-03-22T06:44:09;56.20;;;41.03;;
7729;SDS011;3908;52.310;7.230;2024-03-22T06:46:57;64.83;;;44.33;;
7729;SDS011;3908;52.310;7.230;2024-03-22T06:49:44;63.23;;;43.43;;
7729;SDS011;3908;52.310;7.230;2024-03-22T06:52:31;61.27;;;44.50;;
7729;SDS011;3908;52.310;7.230;2024-03-22T06:55:18;63.57;;;44.37;;
7729;SDS011;3908;52.310;7.230;2024-03-22T06:58:04;64.20;;;47.90;;
7729;SDS011;3908;52.310;7.230;2024-03-22T07:00:51;68.07;;;48.37;;
7729;SDS011;3908;52.310;7.230;2024-03-22T07:03:37;60.37;;;54.13;;
7729;SDS011;3908;52.310;7.230;2024-03-22T07:06:24;59.47;;;52.07;;
7729;SDS011;3908;52.310;7.230;2024-03-22T07:09:12;64.67;;;55.13;;
7729;SDS011;3908;52.310;7.230;2024-03-22T07:12:02;63.70;;;51.73;;
7729;SDS011;3908;52.310;7.230;2024-03-22T07:14:49;57.57;;;43.80;;
7729;SDS011;3908;52.310;7.230;2024-03-22T07:17:37;56.07;;;40.90;;
7729;SDS011;3908;52.310;7.230;2024-03-22T07:20:23;57.13;;;36.07;;
7729;SDS011;3908;52.310;7.230;2024-03-22T07:23:10;48.17;;;34.77;;
7729;SDS011;3908;52.310;7.230;2024-03-22T07:25:57;56.13;;;34.17;;
7729;SDS011;3908;52.310;7.230;2024-03-22T07:28:44;55.73;;;35.20;;
7729;SDS011;3908;52.310;7.230;2024-03-22T07:31:30;54.70;;;35.70;;
7729;SDS011;3908;52.310;7.230;2024-03-22T07:34:18;47.30;;;34.67;;
7729;SDS011;3908;52.310;7.230;2024-03-22T07:37:04;50.83;;;37.57;;
7729;SDS011;3908;52.310;7.230;2024-03-22T07:39:51;55.43;;;41.20;;
7729;SDS011;3908;52.310;7.230;2024-03-22T07:42:38;55.47;;;44.73;;
7729;SDS011;3908;52.310;7.230;2024-03-22T07:45:25;48.30;;;42.10;;
7729;SDS011;3908;52.310;7.230;2024-03-22T07:48:11;55.67;;;45.07;;
7729;SDS011;3908;52.310;7.230;2024-03-22T07:50:58;53.20;;;44.07;;
7729;SDS011;3908;52.310;7.230;2024-03-22T07:53:45;52.17;;;43.63;;
7729;SDS011;3908;52.310;7.230;2024-03-22T07:56:32;61.23;;;55.17;;
7729;SDS011;3908;52.310;7.230;2024-03-22T07:59:20;96.13;;;88.53;;
7729;SDS011;3908;52.310;7.230;2024-03-22T08:02:07;95.07;;;87.80;;
7729;SDS011;3908;52.310;7.230;2024-03-22T08:04:54;94.83;;;87.03;;
7729;SDS011;3908;52.310;7.230;2024-03-22T08:07:40;109.03;;;101.83;;
7729;SDS011;3908;52.310;7.230;2024-03-22T08:10:28;119.80;;;111.63;;
7729;SDS011;3908;52.310;7.230;2024-03-22T08:13:14;130.10;;;121.47;;
7729;SDS011;3908;52.310;7.230;2024-03-22T08:16:03;119.33;;;111.20;;
7729;SDS011;3908;52.310;7.230;2024-03-22T08:18:50;116.07;;;107.87;;
7729;SDS011;3908;52.310;7.230;2024-03-22T08:21:37;113.17;;;105.73;;
7729;SDS011;3908;52.310;7.230;2024-03-22T08:24:24;93.67;;;86.90;;
7729;SDS011;3908;52.310;7.230;2024-03-22T08:27:11;85.70;;;78.77;;
7729;SDS011;3908;52.310;7.230;2024-03-22T08:29:57;80.77;;;74.77;;
7729;SDS011;3908;52.310;7.230;2024-03-22T08:32:45;59.63;;;54.17;;
7729;SDS011;3908;52.310;7.230;2024-03-22T08:35:31;57.50;;;52.40;;
7729;SDS011;3908;52.310;7.230;2024-03-22T08:38:18;55.23;;;50.07;;
7729;SDS011;3908;52.310;7.230;2024-03-22T08:41:04;54.30;;;49.67;;
7729;SDS011;3908;52.310;7.230;2024-03-22T08:43:51;54.60;;;49.47;;
7729;SDS011;3908;52.310;7.230;2024-03-22T08:46:37;53.57;;;48.90;;
7729;SDS011;3908;52.310;7.230;2024-03-22T08:49:26;51.40;;;46.33;;
7729;SDS011;3908;52.310;7.230;2024-03-22T08:52:12;48.43;;;43.53;;
7729;SDS011;3908;52.310;7.230;2024-03-22T08:54:59;53.93;;;48.80;;
7729;SDS011;3908;52.310;7.230;2024-03-22T08:57:46;55.77;;;51.13;;
7729;SDS011;3908;52.310;7.230;2024-03-22T09:00:32;69.23;;;62.97;;
7729;SDS011;3908;52.310;7.230;2024-03-22T09:03:19;70.97;;;65.43;;
7729;SDS011;3908;52.310;7.230;2024-03-22T09:06:08;78.50;;;72.53;;
7729;SDS011;3908;52.310;7.230;2024-03-22T09:08:55;79.17;;;73.53;;
7729;SDS011;3908;52.310;7.230;2024-03-22T09:11:43;84.87;;;78.93;;
7729;SDS011;3908;52.310;7.230;2024-03-22T09:14:30;87.37;;;81.30;;
7729;SDS011;3908;52.310;7.230;2024-03-22T09:17:16;87.77;;;81.77;;
7729;SDS011;3908;52.310;7.230;2024-03-22T09:20:03;96.33;;;89.57;;
7729;SDS011;3908;52.310;7.230;2024-03-22T09:22:52;98.47;;;92.10;;
7729;SDS011;3908;52.310;7.230;2024-03-22T09:25:39;97.40;;;90.90;;
7729;SDS011;3908;52.310;7.230;2024-03-22T09:28:25;96.33;;;89.47;;
7729;SDS011;3908;52.310;7.230;2024-03-22T09:31:12;96.00;;;89.13;;
7729;SDS011;3908;52.310;7.230;2024-03-22T09:33:59;102.10;;;95.03;;
7729;SDS011;3908;52.310;7.230;2024-03-22T09:36:45;98.33;;;92.23;;
7729;SDS011;3908;52.310;7.230;2024-03-22T09:39:34;110.43;;;103.73;;
7729;SDS011;3908;52.310;7.230;2024-03-22T09:42:20;102.93;;;95.93;;
7729;SDS011;3908;52.310;7.230;2024-03-22T09:45:10;106.77;;;99.77;;
7729;SDS011;3908;52.310;7.230;2024-03-22T09:47:57;106.63;;;99.23;;
7729;SDS011;3908;52.310;7.230;2024-03-22T09:50:45;104.30;;;97.50;;
7729;SDS011;3908;52.310;7.230;2024-03-22T09:53:31;97.07;;;90.17;;
7729;SDS011;3908;52.310;7.230;2024-03-22T09:56:20;104.83;;;97.43;;
7729;SDS011;3908;52.310;7.230;2024-03-22T09:59:07;91.03;;;84.73;;
7729;SDS011;3908;52.310;7.230;2024-03-22T10:01:54;104.27;;;97.20;;
7729;SDS011;3908;52.310;7.230;2024-03-22T10:04:40;105.80;;;98.60;;
7729;SDS011;3908;52.310;7.230;2024-03-22T10:07:18;111.10;;;103.57;;
7729;SDS011;3908;52.310;7.230;2024-03-22T10:12:41;148.43;;;138.63;;
7729;SDS011;3908;52.310;7.230;2024-03-22T10:15:28;114.70;;;107.73;;
7729;SDS011;3908;52.310;7.230;2024-03-22T10:18:16;120.60;;;112.67;;
7729;SDS011;3908;52.310;7.230;2024-03-22T10:21:03;124.37;;;116.73;;
7729;SDS011;3908;52.310;7.230;2024-03-22T10:23:53;121.97;;;114.13;;
7729;SDS011;3908;52.310;7.230;2024-03-22T10:26:40;117.30;;;109.47;;
7729;SDS011;3908;52.310;7.230;2024-03-22T10:29:27;109.07;;;101.47;;
7729;SDS011;3908;52.310;7.230;2024-03-22T10:32:14;89.87;;;83.47;;
7729;SDS011;3908;52.310;7.230;2024-03-22T10:35:02;84.93;;;78.73;;
7729;SDS011;3908;52.310;7.230;2024-03-22T10:37:52;73.10;;;67.53;;
7729;SDS011;3908;52.310;7.230;2024-03-22T10:40:38;69.33;;;63.73;;
7729;SDS011;3908;52.310;7.230;2024-03-22T10:43:27;73.43;;;67.20;;
7729;SDS011;3908;52.310;7.230;2024-03-22T10:46:14;76.03;;;69.87;;
7729;SDS011;3908;52.310;7.230;2024-03-22T10:49:03;69.73;;;64.10;;
7729;SDS011;3908;52.310;7.230;2024-03-22T10:51:52;72.93;;;67.20;;
7729;SDS011;3908;52.310;7.230;2024-03-22T10:54:43;65.70;;;60.67;;
7729;SDS011;3908;52.310;7.230;2024-03-22T10:57:32;53.10;;;48.50;;
7729;SDS011;3908;52.310;7.230;2024-03-22T11:00:26;52.87;;;48.07;;
7729;SDS011;3908;52.310;7.230;2024-03-22T11:03:14;48.17;;;43.23;;
7729;SDS011;3908;52.310;7.230;2024-03-22T11:06:01;43.93;;;39.67;;
7729;SDS011;3908;52.310;7.230;2024-03-22T11:08:49;45.27;;;40.33;;
7729;SDS011;3908;52.310;7.230;2024-03-22T11:11:36;49.87;;;45.33;;
7729;SDS011;3908;52.310;7.230;2024-03-22T11:14:22;50.70;;;40.07;;
7729;SDS011;3908;52.310;7.230;2024-03-22T11:17:10;40.13;;;35.97;;
7729;SDS011;3908;52.310;7.230;2024-03-22T11:19:58;43.70;;;39.00;;
7729;SDS011;3908;52.310;7.230;2024-03-22T11:22:45;43.43;;;39.00;;
7729;SDS011;3908;52.310;7.230;2024-03-22T11:25:31;49.37;;;44.80;;
7729;SDS011;3908;52.310;7.230;2024-03-22T11:28:18;48.47;;;43.77;;
7729;SDS011;3908;52.310;7.230;2024-03-22T11:31:05;51.30;;;45.87;;
7729;SDS011;3908;52.310;7.230;2024-03-22T11:33:52;54.07;;;49.47;;
7729;SDS011;3908;52.310;7.230;2024-03-22T11:36:39;53.23;;;48.30;;
7729;SDS011;3908;52.310;7.230;2024-03-22T11:39:26;52.60;;;47.53;;
7729;SDS011;3908;52.310;7.230;2024-03-22T11:42:13;54.93;;;49.83;;
7729;SDS011;3908;52.310;7.230;2024-03-22T11:45:01;53.23;;;48.83;;
7729;SDS011;3908;52.310;7.230;2024-03-22T11:47:48;54.40;;;49.70;;
7729;SDS011;3908;52.310;7.230;2024-03-22T11:50:36;54.93;;;50.53;;
7729;SDS011;3908;52.310;7.230;2024-03-22T11:53:24;54.33;;;49.77;;
7729;SDS011;3908;52.310;7.230;2024-03-22T11:56:11;51.93;;;47.53;;
7729;SDS011;3908;52.310;7.230;2024-03-22T11:58:58;58.40;;;53.87;;
7729;SDS011;3908;52.310;7.230;2024-03-22T12:01:46;54.40;;;50.17;;
7729;SDS011;3908;52.310;7.230;2024-03-22T12:04:32;57.47;;;53.07;;
7729;SDS011;3908;52.310;7.230;2024-03-22T12:07:20;60.70;;;56.47;;
7729;SDS011;3908;52.310;7.230;2024-03-22T12:10:07;60.57;;;56.37;;
7729;SDS011;3908;52.310;7.230;2024-03-22T12:12:55;67.57;;;63.17;;
7729;SDS011;3908;52.310;7.230;2024-03-22T12:15:41;83.13;;;77.37;;
7729;SDS011;3908;52.310;7.230;2024-03-22T12:18:28;81.70;;;76.50;;
7729;SDS011;3908;52.310;7.230;2024-03-22T12:21:14;85.97;;;80.03;;
7729;SDS011;3908;52.310;7.230;2024-03-22T12:24:01;90.33;;;84.43;;
7729;SDS011;3908;52.310;7.230;2024-03-22T12:26:49;91.30;;;85.80;;
7729;SDS011;3908;52.310;7.230;2024-03-22T12:29:36;78.63;;;73.83;;
7729;SDS011;3908;52.310;7.230;2024-03-22T12:32:22;73.37;;;68.73;;
7729;SDS011;3908;52.310;7.230;2024-03-22T12:35:09;70.47;;;66.07;;
7729;SDS011;3908;52.310;7.230;2024-03-22T12:37:55;56.40;;;52.30;;
7729;SDS011;3908;52.310;7.230;2024-03-22T12:40:42;51.33;;;47.47;;
7729;SDS011;3908;52.310;7.230;2024-03-22T12:43:29;46.93;;;43.07;;
7729;SDS011;3908;52.310;7.230;2024-03-22T12:46:16;44.90;;;40.90;;
7729;SDS011;3908;52.310;7.230;2024-03-22T12:49:02;37.27;;;33.97;;
7729;SDS011;3908;52.310;7.230;2024-03-22T12:51:49;38.43;;;35.23;;
7729;SDS011;3908;52.310;7.230;2024-03-22T12:54:35;36.67;;;33.27;;
7729;SDS011;3908;52.310;7.230;2024-03-22T12:57:22;39.87;;;36.37;;
7729;SDS011;3908;52.310;7.230;2024-03-22T13:00:10;37.10;;;33.67;;
7729;SDS011;3908;52.310;7.230;2024-03-22T13:03:03;31.70;;;28.53;;
7729;SDS011;3908;52.310;7.230;2024-03-22T13:05:51;29.70;;;26.87;;
7729;SDS011;3908;52.310;7.230;2024-03-22T13:08:37;28.03;;;25.20;;
7729;SDS011;3908;52.310;7.230;2024-03-22T13:11:24;27.60;;;24.83;;
7729;SDS011;3908;52.310;7.230;2024-03-22T13:14:10;26.60;;;22.87;;
7729;SDS011;3908;52.310;7.230;2024-03-22T13:16:59;26.03;;;21.97;;
7729;SDS011;3908;52.310;7.230;2024-03-22T13:19:45;23.77;;;21.00;;
7729;SDS011;3908;52.310;7.230;2024-03-22T13:22:32;26.43;;;23.83;;
7729;SDS011;3908;52.310;7.230;2024-03-22T13:25:18;27.07;;;24.60;;
7729;SDS011;3908;52.310;7.230;2024-03-22T13:28:05;30.47;;;27.70;;
7729;SDS011;3908;52.310;7.230;2024-03-22T13:30:58;30.13;;;27.33;;
7729;SDS011;3908;52.310;7.230;2024-03-22T13:33:47;31.17;;;28.23;;
7729;SDS011;3908;52.310;7.230;2024-03-22T13:36:33;31.13;;;27.93;;
7729;SDS011;3908;52.310;7.230;2024-03-22T13:39:23;36.93;;;33.33;;
7729;SDS011;3908;52.310;7.230;2024-03-22T13:42:09;30.30;;;27.50;;
7729;SDS011;3908;52.310;7.230;2024-03-22T13:44:57;35.57;;;32.40;;
7729;SDS011;3908;52.310;7.230;2024-03-22T13:47:43;36.10;;;32.90;;
7729;SDS011;3908;52.310;7.230;2024-03-22T13:50:32;38.13;;;34.67;;
7729;SDS011;3908;52.310;7.230;2024-03-22T13:53:19;34.87;;;31.90;;
7729;SDS011;3908;52.310;7.230;2024-03-22T13:56:08;27.60;;;25.00;;
7729;SDS011;3908;52.310;7.230;2024-03-22T13:58:55;31.63;;;29.20;;
7729;SDS011;3908;52.310;7.230;2024-03-22T14:01:43;35.87;;;33.23;;
7729;SDS011;3908;52.310;7.230;2024-03-22T14:04:32;28.23;;;26.13;;
7729;SDS011;3908;52.310;7.230;2024-03-22T14:07:21;36.87;;;33.93;;
7729;SDS011;3908;52.310;7.230;2024-03-22T14:10:07;42.23;;;39.23;;
7729;SDS011;3908;52.310;7.230;2024-03-22T14:12:55;43.27;;;40.57;;
7729;SDS011;3908;52.310;7.230;2024-03-22T14:15:42;48.23;;;45.20;;
7729;SDS011;3908;52.310;7.230;2024-03-22T14:18:31;45.00;;;42.10;;
7729;SDS011;3908;52.310;7.230;2024-03-22T14:21:21;43.03;;;40.37;;
7729;SDS011;3908;52.310;7.230;2024-03-22T14:24:09;46.70;;;43.83;;
7729;SDS011;3908;52.310;7.230;2024-03-22T14:26:57;43.43;;;40.63;;
7729;SDS011;3908;52.310;7.230;2024-03-22T14:29:45;41.93;;;39.17;;
7729;SDS011;3908;52.310;7.230;2024-03-22T14:32:31;32.37;;;30.30;;
7729;SDS011;3908;52.310;7.230;2024-03-22T14:35:18;37.17;;;34.93;;
7729;SDS011;3908;52.310;7.230;2024-03-22T14:38:06;32.90;;;31.00;;
7729;SDS011;3908;52.310;7.230;2024-03-22T14:40:55;37.67;;;35.17;;
7729;SDS011;3908;52.310;7.230;2024-03-22T14:43:41;30.80;;;28.93;;
7729;SDS011;3908;52.310;7.230;2024-03-22T14:46:28;32.37;;;30.33;;
7729;SDS011;3908;52.310;7.230;2024-03-22T14:49:14;34.70;;;32.60;;
7729;SDS011;3908;52.310;7.230;2024-03-22T14:52:01;42.20;;;39.60;;
7729;SDS011;3908;52.310;7.230;2024-03-22T14:54:48;38.13;;;36.03;;
7729;SDS011;3908;52.310;7.230;2024-03-22T14:57:39;40.43;;;38.23;;
7729;SDS011;3908;52.310;7.230;2024-03-22T15:00:25;38.00;;;35.90;;
7729;SDS011;3908;52.310;7.230;2024-03-22T15:03:12;33.07;;;31.13;;
7729;SDS011;3908;52.310;7.230;2024-03-22T15:05:58;30.27;;;28.57;;
7729;SDS011;3908;52.310;7.230;2024-03-22T15:08:46;28.50;;;26.80;;
7729;SDS011;3908;52.310;7.230;2024-03-22T15:11:32;27.80;;;26.20;;
7729;SDS011;3908;52.310;7.230;2024-03-22T15:14:21;28.83;;;27.13;;
7729;SDS011;3908;52.310;7.230;2024-03-22T15:17:08;29.43;;;27.70;;
7729;SDS011;3908;52.310;7.230;2024-03-22T15:19:57;26.83;;;25.43;;
7729;SDS011;3908;52.310;7.230;2024-03-22T15:22:46;23.93;;;22.67;;
7729;SDS011;3908;52.310;7.230;2024-03-22T15:25:32;27.93;;;26.53;;
7729;SDS011;3908;52.310;7.230;2024-03-22T15:28:19;26.10;;;24.33;;
7729;SDS011;3908;52.310;7.230;2024-03-22T15:31:07;24.13;;;22.87;;
7729;SDS011;3908;52.310;7.230;2024-03-22T15:33:54;19.63;;;18.43;;
7729;SDS011;3908;52.310;7.230;2024-03-22T15:36:40;14.93;;;14.03;;
7729;SDS011;3908;52.310;7.230;2024-03-22T15:39:28;16.43;;;15.33;;
7729;SDS011;3908;52.310;7.230;2024-03-22T15:42:14;15.73;;;14.53;;
7729;SDS011;3908;52.310;7.230;2024-03-22T15:45:01;21.00;;;19.60;;
7729;SDS011;3908;52.310;7.230;2024-03-22T15:47:50;36.13;;;33.93;;
7729;SDS011;3908;52.310;7.230;2024-03-22T15:50:38;21.07;;;19.27;;
7729;SDS011;3908;52.310;7.230;2024-03-22T15:53:24;15.17;;;13.93;;
7729;SDS011;3908;52.310;7.230;2024-03-22T15:56:12;15.43;;;13.97;;
7729;SDS011;3908;52.310;7.230;2024-03-22T15:58:58;18.20;;;16.53;;
7729;SDS011;3908;52.310;7.230;2024-03-22T16:01:45;21.60;;;19.47;;
7729;SDS011;3908;52.310;7.230;2024-03-22T16:04:32;19.23;;;17.37;;
7729;SDS011;3908;52.310;7.230;2024-03-22T16:07:19;19.87;;;18.03;;
7729;SDS011;3908;52.310;7.230;2024-03-22T16:10:07;27.63;;;25.70;;
7729;SDS011;3908;52.310;7.230;2024-03-22T16:12:53;25.87;;;23.47;;
7729;SDS011;3908;52.310;7.230;2024-03-22T16:15:41;19.30;;;17.43;;
7729;SDS011;3908;52.310;7.230;2024-03-22T16:18:31;17.87;;;16.03;;
7729;SDS011;3908;52.310;7.230;2024-03-22T16:21:20;18.63;;;16.73;;
7729;SDS011;3908;52.310;7.230;2024-03-22T16:24:07;19.17;;;15.80;;
7729;SDS011;3908;52.310;7.230;2024-03-22T16:26:55;16.23;;;14.23;;
7729;SDS011;3908;52.310;7.230;2024-03-22T16:29:41;16.10;;;14.47;;
7729;SDS011;3908;52.310;7.230;2024-03-22T16:32:29;17.60;;;16.03;;
7729;SDS011;3908;52.310;7.230;2024-03-22T16:35:15;20.13;;;17.93;;
7729;SDS011;3908;52.310;7.230;2024-03-22T16:38:03;25.63;;;20.73;;
7729;SDS011;3908;52.310;7.230;2024-03-22T16:40:50;22.27;;;20.70;;
7729;SDS011;3908;52.310;7.230;2024-03-22T16:43:37;23.07;;;21.30;;
7729;SDS011;3908;52.310;7.230;2024-03-22T16:46:23;24.53;;;22.07;;